createdAt,value
2018-05-10T00:00:00.773Z,6.03
2018-05-10T00:02:28.469Z,7.13
2018-05-10T00:04:55.988Z,8.77
2018-05-10T00:07:23.512Z,7.10
2018-05-10T00:09:51.677Z,6.30
2018-05-10T00:12:19.189Z,7.00
2018-05-10T00:14:46.713Z,7.00
2018-05-10T00:17:14.284Z,6.77
2018-05-10T00:19:41.804Z,7.37
2018-05-10T00:22:09.318Z,6.40
2018-05-10T00:24:37.112Z,6.60
2018-05-10T00:27:04.641Z,6.90
2018-05-10T00:29:32.173Z,6.73
2018-05-10T00:31:59.801Z,5.90
2018-05-10T00:34:27.312Z,5.60
2018-05-10T00:36:54.840Z,5.97
2018-05-10T00:39:22.452Z,6.67
2018-05-10T00:41:49.960Z,5.70
2018-05-10T00:44:17.477Z,7.13
2018-05-10T00:46:45.376Z,5.77
2018-05-10T00:49:12.904Z,7.20
2018-05-10T00:51:40.420Z,7.77
2018-05-10T00:54:08.196Z,6.10
2018-05-10T00:56:35.718Z,6.13
2018-05-10T00:59:03.313Z,6.80
2018-05-10T01:01:31.009Z,5.83
2018-05-10T01:03:58.533Z,6.07
2018-05-10T01:06:26.176Z,5.77
2018-05-10T01:08:53.750Z,5.90
2018-05-10T01:11:21.390Z,6.60
2018-05-10T01:13:48.937Z,6.67
2018-05-10T01:16:20.153Z,6.63
2018-05-10T01:18:47.845Z,6.47
2018-05-10T01:21:15.507Z,6.30
2018-05-10T01:23:43.211Z,6.30
2018-05-10T01:26:10.729Z,6.73
2018-05-10T01:28:38.453Z,6.20
2018-05-10T01:31:06.127Z,6.40
2018-05-10T01:33:33.637Z,5.70
2018-05-10T01:36:14.187Z,5.47
2018-05-10T01:38:41.701Z,6.20
2018-05-10T01:41:10.740Z,5.37
2018-05-10T01:43:38.368Z,5.63
2018-05-10T01:46:05.889Z,5.63
2018-05-10T01:48:33.422Z,5.90
2018-05-10T01:51:01.152Z,6.07
2018-05-10T01:53:28.655Z,6.03
2018-05-10T01:55:56.240Z,5.50
2018-05-10T01:58:23.945Z,5.90
2018-05-10T02:00:52.533Z,6.83
2018-05-10T02:03:20.776Z,6.07
2018-05-10T02:05:48.769Z,6.27
2018-05-10T02:08:16.288Z,6.77
2018-05-10T02:10:43.897Z,6.13
2018-05-10T02:13:12.088Z,6.50
2018-05-10T02:15:39.614Z,6.70
2018-05-10T02:18:07.129Z,6.40
2018-05-10T02:20:34.683Z,7.73
2018-05-10T02:23:02.785Z,7.87
2018-05-10T02:25:31.118Z,6.97
2018-05-10T02:27:58.840Z,7.10
2018-05-10T02:30:26.357Z,7.20
2018-05-10T02:32:53.895Z,6.80
2018-05-10T02:35:21.621Z,7.50
2018-05-10T02:37:49.144Z,6.83
2018-05-10T02:40:16.660Z,7.40
2018-05-10T02:42:44.505Z,6.70
2018-05-10T02:45:12.025Z,7.77
2018-05-10T02:47:39.538Z,8.70
2018-05-10T02:50:07.278Z,8.27
2018-05-10T02:52:34.793Z,7.73
2018-05-10T02:55:02.330Z,9.07
2018-05-10T02:57:30.069Z,8.10
2018-05-10T02:59:57.593Z,7.50
2018-05-10T03:02:25.113Z,8.90
2018-05-10T03:04:52.800Z,8.30
2018-05-10T03:07:20.325Z,8.73
2018-05-10T03:09:47.844Z,9.47
2018-05-10T03:12:15.620Z,8.23
2018-05-10T03:14:43.601Z,8.87
2018-05-10T03:17:11.129Z,8.97
2018-05-10T03:19:38.816Z,9.43
2018-05-10T03:22:06.341Z,9.93
2018-05-10T03:24:33.865Z,9.03
2018-05-10T03:27:01.598Z,8.47
2018-05-10T03:29:29.120Z,9.10
2018-05-10T03:31:56.660Z,9.47
2018-05-10T03:34:24.584Z,10.00
2018-05-10T03:36:52.571Z,9.87
2018-05-10T03:39:20.097Z,10.27
2018-05-10T03:41:47.776Z,10.47
2018-05-10T03:44:15.292Z,9.80
2018-05-10T03:46:42.812Z,10.37
2018-05-10T03:49:10.620Z,10.67
2018-05-10T03:51:38.148Z,10.93
2018-05-10T03:54:05.688Z,10.90
2018-05-10T03:56:33.432Z,10.47
2018-05-10T03:59:00.951Z,10.57
2018-05-10T04:01:28.466Z,10.97
2018-05-10T04:04:08.115Z,12.10
2018-05-10T04:06:47.633Z,12.53
2018-05-10T04:09:27.164Z,13.80
2018-05-10T04:11:54.694Z,13.40
2018-05-10T04:14:22.217Z,13.40
2018-05-10T04:16:50.056Z,13.57
2018-05-10T04:19:17.572Z,11.43
2018-05-10T04:21:45.097Z,12.93
2018-05-10T04:24:12.953Z,12.57
2018-05-10T04:26:40.474Z,11.90
2018-05-10T04:29:08.004Z,11.80
2018-05-10T04:31:35.560Z,12.20
2018-05-10T04:34:03.108Z,12.03
2018-05-10T04:36:30.633Z,10.80
2018-05-10T04:38:58.603Z,10.63
2018-05-10T04:41:26.133Z,11.70
2018-05-10T04:43:53.668Z,11.13
2018-05-10T04:46:21.386Z,11.13
2018-05-10T04:48:48.905Z,11.30
2018-05-10T04:51:16.420Z,11.70
2018-05-10T04:53:43.973Z,12.40
2018-05-10T04:56:11.495Z,11.53
2018-05-10T04:58:39.026Z,11.87
2018-05-10T05:01:06.746Z,12.37
2018-05-10T05:03:34.264Z,11.00
2018-05-10T05:06:01.804Z,12.57
2018-05-10T05:08:29.728Z,12.97
2018-05-10T05:10:57.249Z,12.47
2018-05-10T05:13:24.776Z,12.00
2018-05-10T05:15:52.344Z,13.07
2018-05-10T05:18:19.865Z,12.23
2018-05-10T05:20:47.384Z,13.00
2018-05-10T05:23:15.084Z,12.43
2018-05-10T05:25:42.604Z,11.97
2018-05-10T05:28:10.135Z,12.00
2018-05-10T05:30:37.968Z,11.87
2018-05-10T05:33:05.494Z,10.03
2018-05-10T05:35:33.025Z,9.00
2018-05-10T05:38:00.750Z,10.80
2018-05-10T05:40:28.275Z,10.27
2018-05-10T05:42:55.796Z,10.07
2018-05-10T05:45:23.528Z,10.30
2018-05-10T05:47:51.050Z,10.70
2018-05-10T05:50:18.608Z,10.90
2018-05-10T05:52:46.334Z,10.63
2018-05-10T05:55:13.893Z,12.33
2018-05-10T05:57:41.413Z,11.40
2018-05-10T06:00:09.080Z,10.43
2018-05-10T06:02:36.600Z,10.20
2018-05-10T06:05:04.132Z,12.00
2018-05-10T06:07:31.889Z,11.17
2018-05-10T06:09:59.493Z,10.63
2018-05-10T06:12:27.047Z,10.90
2018-05-10T06:14:54.619Z,10.20
2018-05-10T06:17:22.141Z,8.30
2018-05-10T06:19:49.676Z,8.40
2018-05-10T06:22:17.459Z,9.00
2018-05-10T06:24:45.046Z,9.50
2018-05-10T06:27:12.525Z,8.80
2018-05-10T06:29:40.320Z,8.40
2018-05-10T06:32:08.802Z,8.47
2018-05-10T06:34:36.324Z,8.20
2018-05-10T06:37:04.217Z,7.83
2018-05-10T06:39:31.741Z,5.70
2018-05-10T06:41:59.261Z,7.47
2018-05-10T06:44:27.126Z,7.33
2018-05-10T06:46:55.382Z,8.60
2018-05-10T06:49:23.164Z,7.10
2018-05-10T06:51:51.023Z,6.80
2018-05-10T06:54:18.591Z,7.13
2018-05-10T06:56:46.116Z,6.30
2018-05-10T06:59:13.684Z,6.83
2018-05-10T07:01:41.199Z,7.13
2018-05-10T07:04:08.740Z,4.53
2018-05-10T07:06:36.668Z,4.97
2018-05-10T07:09:05.497Z,4.63
2018-05-10T07:11:33.204Z,4.70
2018-05-10T07:14:01.113Z,5.40
2018-05-10T07:16:28.649Z,4.90
2018-05-10T07:18:56.176Z,5.50
2018-05-10T07:21:23.790Z,5.23
2018-05-10T07:23:51.766Z,5.03
2018-05-10T07:26:19.548Z,6.00
2018-05-10T07:28:47.475Z,5.93
2018-05-10T07:31:15.731Z,6.57
2018-05-10T07:33:43.634Z,6.10
2018-05-10T07:36:12.122Z,5.90
2018-05-10T07:38:39.641Z,5.93
2018-05-10T07:41:07.337Z,7.10
2018-05-10T07:43:35.411Z,7.37
2018-05-10T07:46:02.961Z,6.60
2018-05-10T07:48:30.631Z,7.33
2018-05-10T07:50:58.497Z,7.60
2018-05-10T07:53:27.388Z,8.60
2018-05-10T07:55:55.768Z,8.10
2018-05-10T07:58:23.762Z,7.63
2018-05-10T08:00:52.436Z,8.00
2018-05-10T08:03:20.359Z,7.87
2018-05-10T08:05:48.343Z,7.60
2018-05-10T08:08:16.533Z,7.47
2018-05-10T08:10:44.200Z,8.17
2018-05-10T08:13:12.044Z,7.90
2018-05-10T08:15:40.132Z,7.07
2018-05-10T08:18:08.102Z,7.40
2018-05-10T08:20:36.123Z,8.00
2018-05-10T08:23:04.042Z,7.30
2018-05-10T08:25:31.916Z,7.50
2018-05-10T08:28:00.048Z,8.00
2018-05-10T08:30:27.845Z,6.17
2018-05-10T08:32:55.783Z,7.70
2018-05-10T08:35:24.602Z,6.33
2018-05-10T08:37:52.501Z,6.10
2018-05-10T08:40:20.151Z,5.70
2018-05-10T08:42:47.995Z,5.37
2018-05-10T08:45:15.863Z,5.63
2018-05-10T08:47:43.729Z,6.10
2018-05-10T08:50:11.492Z,6.10
2018-05-10T08:52:39.871Z,5.50
2018-05-10T08:55:07.739Z,4.93
2018-05-10T08:57:35.587Z,6.10
2018-05-10T09:00:03.397Z,5.83
2018-05-10T09:02:31.338Z,5.33
2018-05-10T09:04:59.410Z,6.60
2018-05-10T09:07:27.727Z,6.20
2018-05-10T09:09:55.447Z,6.53
2018-05-10T09:12:24.213Z,6.63
2018-05-10T09:14:52.092Z,7.10
2018-05-10T09:17:20.385Z,6.30
2018-05-10T09:19:48.180Z,7.13
2018-05-10T09:22:15.808Z,6.90
2018-05-10T09:24:43.621Z,6.70
2018-05-10T09:27:11.950Z,5.40
2018-05-10T09:29:39.521Z,4.30
2018-05-10T09:32:07.041Z,4.70
2018-05-10T09:34:34.934Z,4.73
2018-05-10T09:37:02.598Z,4.73
2018-05-10T09:39:30.455Z,4.40
2018-05-10T09:41:58.127Z,5.27
2018-05-10T09:44:25.880Z,5.60
2018-05-10T09:46:53.609Z,6.40
2018-05-10T09:49:21.314Z,5.87
2018-05-10T09:51:48.910Z,6.97
2018-05-10T09:54:16.618Z,5.50
2018-05-10T09:56:44.301Z,6.40
2018-05-10T09:59:12.172Z,5.90
2018-05-10T10:01:39.829Z,6.53
2018-05-10T10:04:07.578Z,6.63
2018-05-10T10:06:35.553Z,5.93
2018-05-10T10:09:03.325Z,5.10
2018-05-10T10:11:31.113Z,5.20
2018-05-10T10:13:58.957Z,5.57
2018-05-10T10:16:26.724Z,4.80
2018-05-10T10:18:54.895Z,4.50
2018-05-10T10:21:22.817Z,4.50
2018-05-10T10:23:50.395Z,4.87
2018-05-10T10:26:18.700Z,4.07
2018-05-10T10:28:46.566Z,3.90
2018-05-10T10:31:14.231Z,4.03
2018-05-10T10:33:42.299Z,3.63
2018-05-10T10:36:10.220Z,2.63
2018-05-10T10:38:38.134Z,2.60
2018-05-10T10:41:06.209Z,2.53
2018-05-10T10:43:34.277Z,2.80
2018-05-10T10:46:02.656Z,2.47
2018-05-10T10:48:30.821Z,2.40
2018-05-10T10:50:58.902Z,2.23
2018-05-10T10:53:26.668Z,1.97
2018-05-10T10:55:54.807Z,2.90
2018-05-10T10:58:22.705Z,2.70
2018-05-10T11:00:50.777Z,3.20
2018-05-10T11:03:18.850Z,3.37
2018-05-10T11:05:46.715Z,2.90
2018-05-10T11:08:14.463Z,2.70
2018-05-10T11:10:43.165Z,2.47
2018-05-10T11:13:11.543Z,3.00
2018-05-10T11:15:39.302Z,3.03
2018-05-10T11:18:07.281Z,2.57
2018-05-10T11:20:35.144Z,2.60
2018-05-10T11:23:03.115Z,2.60
2018-05-10T11:25:31.184Z,2.50
2018-05-10T11:27:58.935Z,2.33
2018-05-10T11:30:26.709Z,2.70
2018-05-10T11:32:54.856Z,2.50
2018-05-10T11:35:22.753Z,2.60
2018-05-10T11:37:50.619Z,2.90
2018-05-10T11:40:18.595Z,3.00
2018-05-10T11:42:46.458Z,2.50
2018-05-10T11:45:14.426Z,2.90
2018-05-10T11:47:42.601Z,2.63
2018-05-10T11:50:10.260Z,2.87
2018-05-10T11:52:38.127Z,3.43
2018-05-10T11:55:06.096Z,2.60
2018-05-10T11:57:34.070Z,3.00
2018-05-10T12:00:02.223Z,3.40
2018-05-10T12:02:31.738Z,3.37
2018-05-10T12:04:59.860Z,3.60
2018-05-10T12:07:27.588Z,3.10
2018-05-10T12:09:55.184Z,3.40
2018-05-10T12:12:22.989Z,3.10
2018-05-10T12:14:51.049Z,3.03
2018-05-10T12:17:18.843Z,4.00
2018-05-10T12:19:46.564Z,4.40
2018-05-10T12:22:14.473Z,3.97
2018-05-10T12:24:43.500Z,3.77
2018-05-10T12:27:12.485Z,4.63
2018-05-10T12:29:40.854Z,6.43
2018-05-10T12:32:09.148Z,6.70
2018-05-10T12:34:36.879Z,7.03
2018-05-10T12:37:04.845Z,6.10
2018-05-10T12:39:33.107Z,5.30
2018-05-10T12:42:01.192Z,4.00
2018-05-10T12:44:29.061Z,3.63
2018-05-10T12:46:58.452Z,3.30
2018-05-10T12:49:26.430Z,2.93
2018-05-10T12:51:54.043Z,3.10
2018-05-10T12:54:22.984Z,4.23
2018-05-10T12:56:50.854Z,3.30
2018-05-10T12:59:18.825Z,3.27
2018-05-10T13:01:46.676Z,2.70
2018-05-10T13:04:14.449Z,2.23
2018-05-10T13:06:43.155Z,2.20
2018-05-10T13:09:11.823Z,2.80
2018-05-10T13:11:39.648Z,1.83
2018-05-10T13:14:07.656Z,2.30
2018-05-10T13:16:35.349Z,2.70
2018-05-10T13:19:03.025Z,1.97
2018-05-10T13:21:30.846Z,1.60
2018-05-10T13:23:58.577Z,1.40
2018-05-10T13:26:26.380Z,0.50
2018-05-10T13:28:54.267Z,0.73
2018-05-10T13:31:22.210Z,0.87
2018-05-10T13:33:50.096Z,0.80
2018-05-10T13:36:17.944Z,0.70
2018-05-10T13:38:46.082Z,0.60
2018-05-10T13:41:13.759Z,1.53
2018-05-10T13:43:41.647Z,1.80
2018-05-10T13:46:10.536Z,1.90
2018-05-10T13:48:38.611Z,1.40
2018-05-10T13:51:06.474Z,2.00
2018-05-10T13:53:34.853Z,2.30
2018-05-10T13:56:02.821Z,2.30
2018-05-10T13:58:30.892Z,2.93
2018-05-10T14:00:59.169Z,3.97
2018-05-10T14:03:27.037Z,4.03
2018-05-10T14:05:54.980Z,4.90
2018-05-10T14:08:22.974Z,5.63
2018-05-10T14:10:51.005Z,5.83
2018-05-10T14:13:19.730Z,6.90
2018-05-10T14:15:48.403Z,6.40
2018-05-10T14:18:16.284Z,7.90
2018-05-10T14:20:44.253Z,6.50
2018-05-10T14:23:12.135Z,6.63
2018-05-10T14:25:40.113Z,6.60
2018-05-10T14:28:08.058Z,6.23
2018-05-10T14:30:36.230Z,6.20
2018-05-10T14:33:04.098Z,6.80
2018-05-10T14:35:32.158Z,5.77
2018-05-10T14:38:01.162Z,6.93
2018-05-10T14:40:29.196Z,6.00
2018-05-10T14:42:57.612Z,6.97
2018-05-10T14:45:26.400Z,5.10
2018-05-10T14:47:54.369Z,5.30
2018-05-10T14:50:23.260Z,6.70
2018-05-10T14:52:52.149Z,6.30
2018-05-10T14:55:20.017Z,5.23
2018-05-10T14:57:47.986Z,6.20
2018-05-10T15:00:17.084Z,5.30
2018-05-10T15:02:45.146Z,6.57
2018-05-10T15:05:13.019Z,5.20
2018-05-10T15:07:41.401Z,4.70
2018-05-10T15:10:09.367Z,6.77
2018-05-10T15:12:37.233Z,5.43
2018-05-10T15:15:06.840Z,5.00
2018-05-10T15:17:34.871Z,4.57
2018-05-10T15:20:02.742Z,4.97
2018-05-10T15:22:30.644Z,4.27
2018-05-10T15:24:58.716Z,3.90
2018-05-10T15:27:26.638Z,3.47
2018-05-10T15:29:54.910Z,4.20
2018-05-10T15:32:24.007Z,3.80
2018-05-10T15:34:52.096Z,3.33
2018-05-10T15:37:20.612Z,3.00
2018-05-10T15:39:48.548Z,4.53
2018-05-10T15:42:16.650Z,3.60
2018-05-10T15:44:44.823Z,3.50
2018-05-10T15:47:12.827Z,3.93
2018-05-10T15:49:41.010Z,3.20
2018-05-10T15:52:09.432Z,2.97
2018-05-10T15:54:38.133Z,3.07
2018-05-10T15:57:05.999Z,2.80
2018-05-10T15:59:34.172Z,30.20
2018-05-10T16:02:02.148Z,10.00
2018-05-10T16:04:30.419Z,2.87
2018-05-10T16:06:58.718Z,2.50
2018-05-10T16:09:26.766Z,3.13
2018-05-10T16:11:54.633Z,3.80
2018-05-10T16:14:22.602Z,3.27
2018-05-10T16:16:52.211Z,2.40
2018-05-10T16:19:19.988Z,3.03
2018-05-10T16:21:48.250Z,4.30
2018-05-10T16:24:16.219Z,3.83
2018-05-10T16:26:45.007Z,4.10
2018-05-10T16:29:13.183Z,3.53
2018-05-10T16:31:41.047Z,3.40
2018-05-10T16:34:08.913Z,5.00
2018-05-10T16:36:36.882Z,4.13
2018-05-10T16:39:05.831Z,4.10
2018-05-10T16:41:34.152Z,4.53
2018-05-10T16:44:02.325Z,5.00
2018-05-10T16:46:30.499Z,4.27
2018-05-10T16:48:58.468Z,3.83
2018-05-10T16:51:26.438Z,5.03
2018-05-10T16:53:54.304Z,4.47
2018-05-10T16:56:22.171Z,3.93
2018-05-10T16:58:50.549Z,4.87
2018-05-10T17:01:18.418Z,5.03
2018-05-10T17:03:47.306Z,4.17
2018-05-10T17:06:15.541Z,5.40
2018-05-10T17:08:43.449Z,4.33
2018-05-10T17:11:11.417Z,5.37
2018-05-10T17:13:39.591Z,4.70
2018-05-10T17:16:08.181Z,5.23
2018-05-10T17:18:36.017Z,5.10
2018-05-10T17:21:04.215Z,4.73
2018-05-10T17:23:33.823Z,4.53
2018-05-10T17:26:01.797Z,5.20
2018-05-10T17:28:30.069Z,4.47
2018-05-10T17:30:59.009Z,4.73
2018-05-10T17:33:26.927Z,5.30
2018-05-10T17:35:55.011Z,4.40
2018-05-10T17:38:22.867Z,3.13
2018-05-10T17:40:50.644Z,5.13
2018-05-10T17:43:19.325Z,4.30
2018-05-10T17:45:47.613Z,4.90
2018-05-10T17:48:15.514Z,4.73
2018-05-10T17:50:43.433Z,4.03
2018-05-10T17:53:11.398Z,4.17
2018-05-10T17:55:39.174Z,4.17
2018-05-10T17:58:07.149Z,3.70
2018-05-10T18:00:35.099Z,4.33
2018-05-10T18:03:02.964Z,5.20
2018-05-10T18:05:30.949Z,4.23
2018-05-10T18:07:58.800Z,4.70
2018-05-10T18:10:26.733Z,4.17
2018-05-10T18:12:54.841Z,4.17
2018-05-10T18:15:22.503Z,4.20
2018-05-10T18:17:50.733Z,4.47
2018-05-10T18:20:18.527Z,4.40
2018-05-10T18:22:46.618Z,4.40
2018-05-10T18:25:15.001Z,3.63
2018-05-10T18:27:43.269Z,3.90
2018-05-10T18:30:11.195Z,4.00
2018-05-10T18:32:39.061Z,2.97
2018-05-10T18:35:07.278Z,4.60
2018-05-10T18:37:35.050Z,3.70
2018-05-10T18:40:03.137Z,3.20
2018-05-10T18:42:31.186Z,3.20
2018-05-10T18:44:58.972Z,3.40
2018-05-10T18:47:26.793Z,3.97
2018-05-10T18:49:54.683Z,3.27
2018-05-10T18:52:22.472Z,6.67
2018-05-10T18:54:50.348Z,5.30
2018-05-10T18:57:18.854Z,3.43
2018-05-10T18:59:47.174Z,4.10
2018-05-10T19:02:16.371Z,3.77
2018-05-10T19:04:44.135Z,4.17
2018-05-10T19:07:12.465Z,3.63
2018-05-10T19:09:40.278Z,3.00
2018-05-10T19:12:08.351Z,3.20
2018-05-10T19:14:36.215Z,3.80
2018-05-10T19:17:04.185Z,2.87
2018-05-10T19:19:32.107Z,3.10
2018-05-10T19:21:59.911Z,3.43
2018-05-10T19:24:27.767Z,3.37
2018-05-10T19:26:55.551Z,3.73
2018-05-10T19:29:23.290Z,3.67
2018-05-10T19:31:51.474Z,3.90
2018-05-10T19:34:19.354Z,3.10
2018-05-10T19:36:47.220Z,3.03
2018-05-10T19:39:16.417Z,3.20
2018-05-10T19:41:45.719Z,3.93
2018-05-10T19:44:13.690Z,3.80
2018-05-10T19:46:41.553Z,3.87
2018-05-10T19:49:09.556Z,3.80
2018-05-10T19:51:37.491Z,3.50
2018-05-10T19:54:05.298Z,4.47
2018-05-10T19:56:33.164Z,3.23
2018-05-10T19:59:00.988Z,4.20
2018-05-10T20:01:28.857Z,3.57
2018-05-10T20:03:57.143Z,3.50
2018-05-10T20:06:25.408Z,3.60
2018-05-10T20:08:53.248Z,3.57
2018-05-10T20:11:21.244Z,3.60
2018-05-10T20:13:49.118Z,4.17
2018-05-10T20:16:17.180Z,4.10
2018-05-10T20:18:45.578Z,3.77
2018-05-10T20:21:13.517Z,3.43
2018-05-10T20:23:41.351Z,3.53
2018-05-10T20:26:09.263Z,4.10
2018-05-10T20:28:37.588Z,4.00
2018-05-10T20:31:05.620Z,4.03
2018-05-10T20:33:33.989Z,3.73
2018-05-10T20:36:02.821Z,3.77
2018-05-10T20:38:31.975Z,3.53
2018-05-10T20:41:00.256Z,3.87
2018-05-10T20:43:29.339Z,3.97
2018-05-10T20:45:57.212Z,4.20
2018-05-10T20:48:25.348Z,3.87
2018-05-10T20:50:53.254Z,4.80
2018-05-10T20:53:21.120Z,4.67
2018-05-10T20:55:49.346Z,4.57
2018-05-10T20:58:17.980Z,4.33
2018-05-10T21:00:45.952Z,4.23
2018-05-10T21:03:14.020Z,4.50
2018-05-10T21:05:41.784Z,4.73
2018-05-10T21:08:09.664Z,4.40
2018-05-10T21:10:37.823Z,4.17
2018-05-10T21:13:05.595Z,4.20
2018-05-10T21:15:33.557Z,4.43
2018-05-10T21:18:04.920Z,4.90
2018-05-10T21:20:32.776Z,4.10
2018-05-10T21:23:00.434Z,4.60
2018-05-10T21:25:28.196Z,4.10
2018-05-10T21:27:56.066Z,3.90
2018-05-10T21:30:23.930Z,4.60
2018-05-10T21:32:52.616Z,5.07
2018-05-10T21:35:20.513Z,5.60
2018-05-10T21:37:48.555Z,5.07
2018-05-10T21:40:16.626Z,4.70
2018-05-10T21:42:45.319Z,5.90
2018-05-10T21:45:20.350Z,5.03
2018-05-10T21:47:48.011Z,4.73
2018-05-10T21:50:15.598Z,4.60
2018-05-10T21:52:44.005Z,4.77
2018-05-10T21:55:12.017Z,6.30
2018-05-10T21:57:39.601Z,4.53
2018-05-10T22:00:07.544Z,4.70
2018-05-10T22:02:35.313Z,4.43
2018-05-10T22:05:02.973Z,4.90
2018-05-10T22:07:30.891Z,5.00
2018-05-10T22:09:58.681Z,4.40
2018-05-10T22:12:26.246Z,5.07
2018-05-10T22:14:54.028Z,5.13
2018-05-10T22:17:21.566Z,6.00
2018-05-10T22:19:49.444Z,5.70
2018-05-10T22:22:17.147Z,6.67
2018-05-10T22:24:45.594Z,5.43
2018-05-10T22:27:13.326Z,5.23
2018-05-10T22:29:41.121Z,5.43
2018-05-10T22:32:08.658Z,4.80
2018-05-10T22:34:36.369Z,4.50
2018-05-10T22:37:05.239Z,5.27
2018-05-10T22:39:32.768Z,5.37
2018-05-10T22:42:00.297Z,5.30
2018-05-10T22:44:27.952Z,5.10
2018-05-10T22:46:55.437Z,5.90
2018-05-10T22:49:22.979Z,6.25
2018-05-10T22:51:52.272Z,5.80
2018-05-10T22:54:19.813Z,6.50
2018-05-10T22:56:47.352Z,6.37
2018-05-10T22:59:15.180Z,5.72
2018-05-10T23:01:42.725Z,6.45
2018-05-10T23:04:10.256Z,5.77
2018-05-10T23:06:38.001Z,6.12
2018-05-10T23:09:06.377Z,5.83
2018-05-10T23:11:33.940Z,4.93
2018-05-10T23:14:01.597Z,5.53
2018-05-10T23:16:29.125Z,5.50
2018-05-10T23:18:56.710Z,5.60
2018-05-10T23:21:24.787Z,5.43
2018-05-10T23:23:52.582Z,5.18
2018-05-10T23:26:20.680Z,5.93
2018-05-10T23:28:48.308Z,5.37
2018-05-10T23:31:15.897Z,6.12
2018-05-10T23:33:44.409Z,5.20
2018-05-10T23:36:12.174Z,6.03
2018-05-10T23:38:39.702Z,5.60
2018-05-10T23:41:07.234Z,5.35
2018-05-10T23:43:35.154Z,5.57
2018-05-10T23:46:02.955Z,6.03
2018-05-10T23:48:30.600Z,5.00
2018-05-10T23:50:58.162Z,5.30
2018-05-10T23:53:25.712Z,5.90
2018-05-10T23:55:53.236Z,6.47
2018-05-10T23:58:21.024Z,6.72
